Latest Coastal Weather Observations for Low Rocky Point

IDT60701

Issued at 7:32 pm EST Wednesday 6 May 2026 (issued every 10 minutes, with the page automatically refreshed every 10 minutes)

About coastal observations | Map of coastal stations | Coastal observations for TAS | Marine services | Other Formats
Station Details ID: 097080 Name: LOW ROCKY POINT Lat: -42.98 Lon: 145.50 Height: 34.0 m
Data from the previous 72 hours. | See also: Recent months at Low Rocky Point
Date/Time
EST
Wind Sea
Height
m
Swell Vis
km
Cloud Weather Temp
°C
Press
MSL
hPa
Rain since
9am
mm
Dir  Spd
kts
Gust
kts
Height
m
Period
s
Dir
06/07:30pm WSW 11 15 - - - - - - - 8.4 1008.7 10.6
06/07:00pm WSW 17 24 - - - - - - - 7.9 1008.8 10.4
06/06:30pm W 23 28 - - - - - - - 8.3 1008.6 10.2
06/06:10pm WNW 10 23 - - - - - - - 8.8 1008.4 10.2
06/06:00pm WNW 9 11 - - - - - - Rain 8.3 1008.1 10.2
06/05:30pm NW 11 14 - - - - - - - 8.6 1008.5 8.8
06/05:00pm NW 9 11 - - - - - - - 8.4 1008.4 8.6
06/04:30pm WNW 12 17 - - - - - - - 8.3 1008.5 8.6
06/04:00pm WNW 13 18 - - - - - - - 8.9 1008.6 8.0
06/03:30pm NW 10 13 - - - - - - - 8.6 1008.5 7.6
06/03:00pm W 16 20 - - - - - - Rain 8.3 1008.9 6.8
06/02:30pm WSW 19 24 - - - - - - - 8.7 1008.6 5.8
06/02:00pm W 15 21 - - - - - - - 9.2 1008.7 4.2
06/01:30pm W 12 16 - - - - - - - 8.7 1009.0 4.0
06/01:00pm WSW 15 20 - - - - - - - 9.4 1009.1 3.0
06/12:30pm W 19 25 - - - - - - - 10.3 1009.2 1.8
06/12:00pm W 21 25 - - - - - - - 10.6 1009.7 1.8
06/11:30am W 27 34 - - - - - - - 10.4 1009.9 1.8
06/11:00am W 23 29 - - - - - - - 10.4 1010.0 1.8
06/10:30am W 24 29 - - - - - - - 11.0 1009.9 1.4
06/10:00am W 27 39 - - - - - - - 11.6 1009.7 0.2
06/09:54am NW 30 40 - - - - - - - 12.3 1009.7 0.2
06/09:42am NW 31 41 - - - - - - - 14.3 1009.3 0.0
06/09:30am NW 30 38 - - - - - - - 14.3 1009.4 0.0
06/09:00am NW 30 39 - - - - - - - 14.2 1009.5 1.6
06/08:30am NW 31 38 - - - - - - - 13.9 1009.5 1.6
06/08:00am NW 30 40 - - - - - - - 14.0 1009.8 1.6
06/07:30am NW 29 37 - - - - - - - 14.0 1010.0 1.6
06/07:06am NW 29 39 - - - - - - - 13.9 1010.2 1.6
06/07:00am NW 31 39 - - - - - - - 13.8 1010.2 1.6
06/06:48am NW 29 39 - - - - - - - 13.6 1010.2 1.6
06/06:30am NW 32 39 - - - - - - - 13.4 1010.2 1.6
06/06:04am NW 32 42 - - - - - - - 13.0 1010.4 1.6
06/06:00am NW 34 42 - - - - - - - 13.5 1010.4 1.6
06/05:50am NW 31 41 - - - - - - - 13.5 1010.3 1.6
06/05:30am NW 28 35 - - - - - - - 13.1 1010.6 1.6
06/05:08am NW 29 39 - - - - - - - 13.1 1010.7 1.6
06/05:00am NW 29 38 - - - - - - - 12.9 1010.7 1.6
06/04:30am NW 32 41 - - - - - - - 13.1 1010.8 1.4
06/04:21am NW 30 41 - - - - - - - 13.5 1010.8 1.4
06/04:00am NW 29 37 - - - - - - - 13.7 1011.0 1.4
06/03:32am NW 30 40 - - - - - - - 13.9 1011.1 1.4
06/03:30am NW 29 36 - - - - - - - 14.1 1011.3 1.4
06/03:00am NW 28 36 - - - - - - Recent precip. 13.5 1011.5 1.4
06/02:45am NW 29 45 - - - - - - - 14.0 1011.6 1.4
06/02:30am NW 28 36 - - - - - - - 13.9 1011.9 1.4
06/02:00am NW 27 36 - - - - - - - 13.7 1012.4 1.2
06/01:30am NW 28 35 - - - - - - - 13.5 1012.8 1.2
06/01:00am NW 26 36 - - - - - - - 13.9 1012.9 1.2
06/12:52am NW 26 36 - - - - - - - 13.9 1013.0 1.2
06/12:30am NW 29 35 - - - - - - - 14.0 1013.1 1.2
06/12:25am NW 29 39 - - - - - - - 13.9 1013.2 1.2
06/12:00am NW 32 39 - - - - - - - 13.9 1013.2 1.2
 
Date/Time
EST
Wind Sea
Height
m
Swell Vis
km
Cloud Weather Temp
°C
Press
MSL
hPa
Rain since
9am
mm
Dir  Spd
kts
Gust
kts
Height
m
Period
s
Dir
05/11:30pm NW 29 35 - - - - - - - 13.6 1013.1 1.2
05/11:15pm NW 26 36 - - - - - - - 14.0 1013.4 1.2
05/11:00pm NW 27 34 - - - - - - - 13.7 1013.6 1.2
05/10:30pm NW 27 33 - - - - - - - 13.7 1014.1 1.2
05/10:00pm NW 27 33 - - - - - - - 13.5 1014.3 1.2
05/09:30pm NW 24 29 - - - - - - - 13.0 1014.6 1.2
05/09:00pm WNW 26 32 - - - - - - - 13.0 1014.6 1.2
05/08:30pm NW 25 33 - - - - - - - 12.7 1014.5 1.2
05/08:00pm NW 24 30 - - - - - - - 12.5 1014.8 1.2
05/07:55pm NW 21 28 - - - - - - - 12.4 1014.9 1.2
05/07:30pm NNW 17 24 - - - - - - - 11.8 1014.9 1.2
05/07:00pm NNW 15 20 - - - - - - - 11.6 1015.1 0.8
05/06:30pm NNW 15 22 - - - - - - - 11.6 1015.1 0.8
05/06:00pm NNW 16 22 - - - - - - Rain 11.6 1014.9 0.8
05/05:30pm N 12 17 - - - - - - - 11.6 1014.9 0.6
05/05:15pm NNW 16 23 - - - - - - - 11.9 1014.8 0.6
05/05:00pm NW 21 26 - - - - - - - 12.0 1014.8 0.4
05/04:30pm NNW 12 18 - - - - - - - 12.6 1014.8 0.2
05/04:00pm NNW 18 22 - - - - - - - 12.8 1014.5 0.2
05/03:30pm NW 19 22 - - - - - - - 12.4 1014.6 0.2
05/03:00pm NW 18 24 - - - - - - - 12.1 1014.4 0.0
05/02:30pm NW 18 23 - - - - - - - 12.7 1014.0 0.0
05/02:00pm NW 17 21 - - - - - - - 13.2 1014.0 0.0
05/01:30pm WNW 18 23 - - - - - - - 13.3 1013.9 0.0
05/01:00pm NW 17 21 - - - - - - - 12.6 1014.2 0.0
05/12:30pm NW 19 27 - - - - - - - 11.9 1014.4 0.0
05/12:00pm WNW 18 22 - - - - - - - 12.7 1014.5 0.0
05/11:30am WNW 20 23 - - - - - - - 12.8 1014.1 0.0
05/11:00am W 21 25 - - - - - - - 12.1 1014.0 0.0
05/10:30am W 19 23 - - - - - - - 12.2 1013.6 0.0
05/10:00am W 15 19 - - - - - - - 12.0 1013.2 0.0
05/09:30am W 13 17 - - - - - - - 11.9 1012.8 0.0
05/09:00am WSW 14 18 - - - - - - Recent precip. 11.7 1012.8 13.6
05/08:30am WSW 13 19 - - - - - - - 11.6 1012.4 13.6
05/08:00am W 12 18 - - - - - - - 12.2 1012.0 13.4
05/07:30am W 13 16 - - - - - - - 12.0 1011.4 13.2
05/07:00am WSW 12 17 - - - - - - - 11.9 1011.0 13.2
05/06:30am WSW 18 21 - - - - - - - 11.7 1010.5 13.2
05/06:00am WSW 18 23 - - - - - - - 12.2 1010.0 13.2
05/05:30am WSW 11 17 - - - - - - - 12.7 1009.6 13.2
05/05:00am WSW 15 18 - - - - - - - 12.8 1009.1 13.2
05/04:30am W 13 16 - - - - - - - 12.9 1008.8 13.2
05/04:00am WSW 10 13 - - - - - - - 12.9 1008.3 13.2
05/03:30am WSW 9 12 - - - - - - - 12.8 1008.0 13.2
05/03:00am WSW 11 14 - - - - - - - 12.9 1007.9 13.2
05/02:30am WSW 11 13 - - - - - - - 12.7 1007.9 13.2
05/02:00am NNW 7 9 - - - - - - - 12.5 1007.7 13.2
05/01:30am NNW 6 8 - - - - - - - 12.5 1007.5 12.6
05/01:00am NNW 8 10 - - - - - - - 12.7 1007.8 12.4
05/12:30am NW 6 7 - - - - - - - 12.1 1007.8 10.2
05/12:00am N 5 6 - - - - - - - 11.5 1007.5 9.2
 
Date/Time
EST
Wind Sea
Height
m
Swell Vis
km
Cloud Weather Temp
°C
Press
MSL
hPa
Rain since
9am
mm
Dir  Spd
kts
Gust
kts
Height
m
Period
s
Dir
04/11:30pm N 6 6 - - - - - - - 11.4 1007.5 9.2
04/11:00pm NNE 7 7 - - - - - - - 11.8 1007.5 9.2
04/10:30pm N 5 6 - - - - - - - 12.2 1008.0 9.2
04/10:00pm N 4 5 - - - - - - - 12.1 1008.0 9.2
04/09:30pm NNE 4 4 - - - - - - - 12.1 1007.9 9.2
04/09:00pm N 5 7 - - - - - - Rain 12.2 1007.5 9.2
04/08:30pm N 7 8 - - - - - - - 12.2 1007.3 7.8
04/08:00pm N 6 8 - - - - - - - 12.4 1007.3 7.0
04/07:30pm NNW 9 12 - - - - - - - 12.8 1007.2 6.6
04/07:00pm NW 14 17 - - - - - - - 12.8 1007.1 4.2
04/06:30pm NW 19 24 - - - - - - - 13.2 1007.0 0.8
04/06:21pm WNW 12 20 - - - - - - - 14.0 1006.7 0.8
04/06:00pm NW 5 9 - - - - - - - 13.5 1006.4 0.8
04/05:30pm N 6 7 - - - - - - - 13.3 1006.3 0.8
04/05:00pm N 7 8 - - - - - - - 13.6 1006.1 0.8
04/04:30pm NNW 7 9 - - - - - - - 14.4 1005.9 0.8
04/04:00pm NW 7 9 - - - - - - - 15.6 1005.7 0.8
04/03:30pm NW 8 11 - - - - - - - 15.3 1005.9 0.8
04/03:00pm NW 8 10 - - - - - - - 17.8 1005.9 0.0
04/02:30pm NW 9 12 - - - - - - - 16.7 1005.9 0.0
04/02:00pm WNW 11 14 - - - - - - - 16.8 1006.3 0.0
04/01:30pm WNW 9 10 - - - - - - - 17.3 1006.4 0.0
04/01:00pm NW 11 15 - - - - - - - 17.1 1006.9 0.0
04/12:30pm NNW 9 12 - - - - - - - 17.0 1007.3 0.0
04/12:00pm NNW 12 17 - - - - - - - 17.4 1007.7 0.0
04/11:30am N 14 19 - - - - - - - 16.9 1008.0 0.0
04/11:00am N 11 17 - - - - - - - 17.2 1008.0 0.0
04/10:30am N 11 14 - - - - - - - 15.8 1007.9 0.0
04/10:00am N 11 17 - - - - - - - 16.0 1007.9 0.0
04/09:30am NNE 10 13 - - - - - - - 14.7 1008.2 0.0
04/09:00am NNE 9 12 - - - - - - - 13.8 1008.3 8.2
04/08:30am N 12 16 - - - - - - - 13.2 1008.2 8.2
04/08:00am N 14 19 - - - - - - - 12.5 1008.2 8.2
04/07:30am N 15 18 - - - - - - - 12.0 1008.0 8.2
04/07:00am NNE 14 17 - - - - - - - 11.5 1007.9 8.2
04/06:30am NNE 13 16 - - - - - - - 11.8 1007.7 8.2
04/06:00am NNE 13 17 - - - - - - - 11.9 1007.4 8.2
04/05:30am NNE 13 16 - - - - - - - 11.8 1007.8 8.2
04/05:00am NNE 11 13 - - - - - - - 11.5 1007.9 8.2
04/04:30am NNE 11 13 - - - - - - - 11.4 1008.0 8.2
04/04:00am NE 12 14 - - - - - - - 11.4 1008.2 8.2
04/03:30am NE 12 14 - - - - - - - 11.1 1008.4 8.2
04/03:00am NNE 12 14 - - - - - - - 11.2 1008.7 8.2
04/02:30am NNE 12 15 - - - - - - - 11.4 1008.7 8.2
04/02:00am NNE 10 13 - - - - - - - 11.4 1008.6 8.2
04/01:30am NNE 11 13 - - - - - - - 11.8 1009.1 8.2
04/01:00am N 10 13 - - - - - - - 12.2 1008.7 8.2
04/12:30am N 11 15 - - - - - - - 12.4 1009.3 8.2
04/12:00am N 10 13 - - - - - - - 12.3 1009.4 8.2
 
Date/Time
EST
Wind Sea
Height
m
Swell Vis
km
Cloud Weather Temp
°C
Press
MSL
hPa
Rain since
9am
mm
Dir  Spd
kts
Gust
kts
Height
m
Period
s
Dir
03/11:30pm N 11 13 - - - - - - - 12.3 1009.6 8.2
03/11:00pm NNE 10 13 - - - - - - - 12.5 1010.0 8.2
03/10:30pm NNE 10 12 - - - - - - - 12.8 1010.6 8.2
03/10:00pm NW 16 19 - - - - - - - 14.0 1010.2 8.2
03/09:30pm NNW 12 19 - - - - - - - 14.1 1009.8 8.2
03/09:00pm NW 18 20 - - - - - - Recent precip. 14.2 1009.7 8.2
03/08:30pm NNW 14 19 - - - - - - - 14.2 1009.5 8.2
03/08:00pm NNW 12 16 - - - - - - - 14.1 1009.4 8.0

Other formats

Comma delimited format used in spreadsheet applications
http://www.bom.gov.au/fwo/IDT60701/IDT60701.95961.axf

JavaScript Object Notation format (JSON) in row-major order
http://www.bom.gov.au/fwo/IDT60701/IDT60701.95961.json

Data quality

Most of these data are generated automatically and are frequently updated. Quality checks on data are not normally performed. It is possible for incorrect values to appear. Refer to information at About Latest Weather Observations and please check the disclaimer before using these data.